首页
METAR-TAF:

METAR-TAF

机场 :

Timmins, 安大略省, 加拿大

纬度: 48-34N, 经度: 081-22W, 海拔: 295米

当前天气观测

该预报发布于15分钟前的08:43 UTC
风速6节,风向
温度 6°C
湿度 93%
气压 1016 hPa
能見度: 24.1公里
少量云层高于5500英尺
散云层高于8000英尺
多云层高于11000英尺

METAR: CYTS 010843Z 19006KT 15SM FEW055 SCT080 BKN110 06/05 A2999 RMK SC2AC2AC2 SLP166

时间: 04:58 (08:58 UTC)

预报

该预报发布于1小时和28分钟前的07:30 UTC
预报有效从01日的 08点(UTC)到 01日的 20点(UTC)
风速5节,风向
能見度: 10公里
少量云层高于4000英尺
散云层高于8000英尺
阴天层高于12000英尺
成为
从 01日的 09点(UTC)到 01日的 11点(UTC)
风速8节,风向西转西南
成为
从 01日的 12点(UTC)到 01日的 14点(UTC)
风速8节,风向西转西北,有时为18节阵风
从 01日的 1600点(UTC)
风速8节,风向西北
能見度: 10公里
散云层高于20000英尺

TAF: CYTS 010730Z 0108/0120 19005KT P6SM FEW040 SCT080 OVC120 BECMG 0109/0111 25008KT BECMG 0112/0114 29008G18KT FM011600 32008KT P6SM SCT200 RMK NXT FCST BY 011400Z

超过4000个机场的气象观测和天气预报(METAR&TAF报告)。

可查询的气象台以黄色和红色小点在地图上表示。

将鼠标移到小点上方,可查看气象台名称。

然后点击查看天气观测和预报。

如需切换地图:点击带黑十字的绿色按钮放大地图;点击带横线的绿色按钮缩小地图;或者点击绿色箭头查看邻近地区的地图。


METAR-TAF: